Lake Nebagamon, Wisconsin
Current Conditions -  °F | °C
As of 12:15 PM on Friday 24 Oct 2014 (Local Time) from KOLG Reporting Station
Clear Clear  
Wind Chill: 63°   Ceiling: Unl
Heat Index: 63°   Visibility: 10mi
Dew Point: 48°   Wind: 12mph
Humidity: 59%   Direction: 200°SSW
Pressure: 29.85"   Gusts: 16mph
Location:  46.51°N, 91.7°W
Report Text: KOLG 241715Z AUTO 20010G14KT 10SM CLR 17/09 A2985 RMK AO1
Loading
Personal Weather Stations






























Interactive Weather Map
Tropical Storm Tracking
New forecast layout! Learn more

10-Day Weather Forecast

Advertisements
Track Severe Weather on mobile